sensor_id;sensor_type;location;lat;lon;timestamp;pressure;altitude;pressure_sealevel;temperature;humidity
21520;BME280;10921;53.614;9.882;2022-11-24T00:01:25;100178.28;;;7.63;83.96
21520;BME280;10921;53.614;9.882;2022-11-24T00:04:01;100183.44;;;7.65;84.80
21520;BME280;10921;53.614;9.882;2022-11-24T00:06:29;100189.56;;;7.65;84.23
21520;BME280;10921;53.614;9.882;2022-11-24T00:08:56;100192.22;;;7.65;84.29
21520;BME280;10921;53.614;9.882;2022-11-24T00:11:26;100180.09;;;7.63;84.53
21520;BME280;10921;53.614;9.882;2022-11-24T00:13:53;100180.09;;;7.63;84.37
21520;BME280;10921;53.614;9.882;2022-11-24T00:16:34;100189.56;;;7.65;85.28
21520;BME280;10921;53.614;9.882;2022-11-24T00:19:05;100190.72;;;7.63;84.93
21520;BME280;10921;53.614;9.882;2022-11-24T00:21:33;100189.16;;;7.60;84.58
21520;BME280;10921;53.614;9.882;2022-11-24T00:24:00;100200.63;;;7.61;84.54
21520;BME280;10921;53.614;9.882;2022-11-24T00:26:31;100196.28;;;7.60;84.96
21520;BME280;10921;53.614;9.882;2022-11-24T00:29:00;100188.06;;;7.63;85.21
21520;BME280;10921;53.614;9.882;2022-11-24T00:31:28;100184.56;;;7.62;84.93
21520;BME280;10921;53.614;9.882;2022-11-24T00:33:58;100186.38;;;7.62;85.40
21520;BME280;10921;53.614;9.882;2022-11-24T00:36:28;100188.91;;;7.63;85.09
21520;BME280;10921;53.614;9.882;2022-11-24T00:39:03;100203.81;;;7.64;86.06
21520;BME280;10921;53.614;9.882;2022-11-24T00:41:31;100195.19;;;7.62;85.15
21520;BME280;10921;53.614;9.882;2022-11-24T00:43:58;100204.00;;;7.63;85.18
21520;BME280;10921;53.614;9.882;2022-11-24T00:46:25;100201.59;;;7.60;85.56
21520;BME280;10921;53.614;9.882;2022-11-24T00:48:53;100216.25;;;7.64;85.51
21520;BME280;10921;53.614;9.882;2022-11-24T00:51:22;100208.28;;;7.64;85.82
21520;BME280;10921;53.614;9.882;2022-11-24T00:53:49;100208.28;;;7.64;85.83
21520;BME280;10921;53.614;9.882;2022-11-24T00:56:15;100193.78;;;7.58;85.71
21520;BME280;10921;53.614;9.882;2022-11-24T00:58:42;100213.59;;;7.64;85.97
21520;BME280;10921;53.614;9.882;2022-11-24T01:01:13;100221.44;;;7.65;86.13
21520;BME280;10921;53.614;9.882;2022-11-24T01:03:40;100211.66;;;7.66;86.11
21520;BME280;10921;53.614;9.882;2022-11-24T01:06:16;100210.53;;;7.68;86.83
21520;BME280;10921;53.614;9.882;2022-11-24T01:08:43;100215.03;;;7.68;86.18
21520;BME280;10921;53.614;9.882;2022-11-24T01:11:15;100213.19;;;7.68;86.49
21520;BME280;10921;53.614;9.882;2022-11-24T01:13:44;100210.28;;;7.62;86.09
21520;BME280;10921;53.614;9.882;2022-11-24T01:16:23;100222.00;;;7.69;87.36
21520;BME280;10921;53.614;9.882;2022-11-24T01:18:50;100215.28;;;7.65;86.65
21520;BME280;10921;53.614;9.882;2022-11-24T01:21:17;100224.66;;;7.69;86.53
21520;BME280;10921;53.614;9.882;2022-11-24T01:23:44;100220.31;;;7.68;86.85
21520;BME280;10921;53.614;9.882;2022-11-24T01:26:14;100231.66;;;7.70;86.73
21520;BME280;10921;53.614;9.882;2022-11-24T01:28:41;100231.78;;;7.68;86.96
21520;BME280;10921;53.614;9.882;2022-11-24T01:31:13;100228.03;;;7.71;86.93
21520;BME280;10921;53.614;9.882;2022-11-24T01:33:40;100219.63;;;7.66;86.82
21520;BME280;10921;53.614;9.882;2022-11-24T01:36:06;100233.34;;;7.71;86.96
21520;BME280;10921;53.614;9.882;2022-11-24T01:38:33;100225.38;;;7.71;87.06
21520;BME280;10921;53.614;9.882;2022-11-24T01:41:15;100229.56;;;7.73;87.73
21520;BME280;10921;53.614;9.882;2022-11-24T01:43:43;100230.69;;;7.71;86.87
21520;BME280;10921;53.614;9.882;2022-11-24T01:46:18;100231.53;;;7.71;87.57
21520;BME280;10921;53.614;9.882;2022-11-24T01:48:55;100229.72;;;7.72;87.31
21520;BME280;10921;53.614;9.882;2022-11-24T01:51:25;100234.19;;;7.71;87.12
21520;BME280;10921;53.614;9.882;2022-11-24T01:53:57;100235.84;;;7.72;87.37
21520;BME280;10921;53.614;9.882;2022-11-24T01:56:26;100242.97;;;7.72;87.09
21520;BME280;10921;53.614;9.882;2022-11-24T01:58:56;100245.50;;;7.73;87.26
21520;BME280;10921;53.614;9.882;2022-11-24T02:01:24;100238.50;;;7.72;86.95
21520;BME280;10921;53.614;9.882;2022-11-24T02:03:51;100249.97;;;7.73;87.46
21520;BME280;10921;53.614;9.882;2022-11-24T02:06:26;100249.84;;;7.74;87.41
21520;BME280;10921;53.614;9.882;2022-11-24T02:08:59;100256.69;;;7.77;87.93
21520;BME280;10921;53.614;9.882;2022-11-24T02:11:34;100262.97;;;7.76;87.90
21520;BME280;10921;53.614;9.882;2022-11-24T02:14:04;100253.47;;;7.73;87.07
21520;BME280;10921;53.614;9.882;2022-11-24T02:16:33;100262.16;;;7.75;87.07
21520;BME280;10921;53.614;9.882;2022-11-24T02:19:03;100252.63;;;7.73;87.22
21520;BME280;10921;53.614;9.882;2022-11-24T02:21:33;100254.44;;;7.72;86.75
21520;BME280;10921;53.614;9.882;2022-11-24T02:24:11;100262.41;;;7.72;87.66
21520;BME280;10921;53.614;9.882;2022-11-24T02:26:43;100266.19;;;7.70;86.55
21520;BME280;10921;53.614;9.882;2022-11-24T02:29:12;100264.75;;;7.66;86.71
21520;BME280;10921;53.614;9.882;2022-11-24T02:31:55;100250.50;;;7.57;86.85
21520;BME280;10921;53.614;9.882;2022-11-24T02:34:24;100263.91;;;7.56;86.28
21520;BME280;10921;53.614;9.882;2022-11-24T02:36:51;100264.44;;;7.50;86.05
21520;BME280;10921;53.614;9.882;2022-11-24T02:39:17;100273.09;;;7.42;86.23
21520;BME280;10921;53.614;9.882;2022-11-24T02:41:57;100268.44;;;7.34;87.22
21520;BME280;10921;53.614;9.882;2022-11-24T02:44:30;100261.56;;;7.22;86.67
21520;BME280;10921;53.614;9.882;2022-11-24T02:47:05;100271.34;;;7.22;86.59
21520;BME280;10921;53.614;9.882;2022-11-24T02:49:32;100272.16;;;7.13;86.19
21520;BME280;10921;53.614;9.882;2022-11-24T02:51:59;100277.00;;;7.07;86.22
21520;BME280;10921;53.614;9.882;2022-11-24T02:54:26;100273.09;;;7.02;86.26
21520;BME280;10921;53.614;9.882;2022-11-24T02:56:53;100281.44;;;6.97;86.69
21520;BME280;10921;53.614;9.882;2022-11-24T02:59:20;100276.25;;;6.96;87.21
21520;BME280;10921;53.614;9.882;2022-11-24T03:01:46;100280.72;;;6.95;87.65
21520;BME280;10921;53.614;9.882;2022-11-24T03:04:13;100270.38;;;6.92;87.78
21520;BME280;10921;53.614;9.882;2022-11-24T03:06:40;100276.25;;;6.96;88.13
21520;BME280;10921;53.614;9.882;2022-11-24T03:09:06;100275.16;;;6.98;87.97
21520;BME280;10921;53.614;9.882;2022-11-24T03:11:33;100270.13;;;6.95;87.74
21520;BME280;10921;53.614;9.882;2022-11-24T03:14:00;100276.53;;;6.93;87.45
21520;BME280;10921;53.614;9.882;2022-11-24T03:16:27;100279.56;;;6.88;87.64
21520;BME280;10921;53.614;9.882;2022-11-24T03:18:53;100287.69;;;6.87;87.55
21520;BME280;10921;53.614;9.882;2022-11-24T03:21:20;100288.06;;;6.82;87.75
21520;BME280;10921;53.614;9.882;2022-11-24T03:23:51;100284.69;;;6.80;88.17
21520;BME280;10921;53.614;9.882;2022-11-24T03:26:19;100296.16;;;6.81;88.03
21520;BME280;10921;53.614;9.882;2022-11-24T03:28:47;100296.16;;;6.81;88.40
21520;BME280;10921;53.614;9.882;2022-11-24T03:31:13;100304.69;;;6.84;88.55
21520;BME280;10921;53.614;9.882;2022-11-24T03:33:40;100289.28;;;6.78;88.77
21520;BME280;10921;53.614;9.882;2022-11-24T03:36:10;100309.31;;;6.92;88.98
21520;BME280;10921;53.614;9.882;2022-11-24T03:38:36;100302.06;;;6.94;89.15
21520;BME280;10921;53.614;9.882;2022-11-24T03:41:03;100307.97;;;6.97;89.62
21520;BME280;10921;53.614;9.882;2022-11-24T03:43:30;100315.97;;;7.07;90.00
21520;BME280;10921;53.614;9.882;2022-11-24T03:45:57;100320.63;;;7.15;89.92
21520;BME280;10921;53.614;9.882;2022-11-24T03:48:23;100299.53;;;7.13;89.84
21520;BME280;10921;53.614;9.882;2022-11-24T03:50:58;100316.91;;;7.27;90.69
21520;BME280;10921;53.614;9.882;2022-11-24T03:53:27;100316.38;;;7.33;90.28
21520;BME280;10921;53.614;9.882;2022-11-24T03:55:54;100337.06;;;7.39;90.25
21520;BME280;10921;53.614;9.882;2022-11-24T03:58:20;100322.69;;;7.41;90.36
21520;BME280;10921;53.614;9.882;2022-11-24T04:00:48;100337.09;;;7.49;90.53
21520;BME280;10921;53.614;9.882;2022-11-24T04:03:15;100330.41;;;7.54;90.33
21520;BME280;10921;53.614;9.882;2022-11-24T04:05:42;100341.47;;;7.59;90.01
21520;BME280;10921;53.614;9.882;2022-11-24T04:08:08;100342.91;;;7.63;90.19
21520;BME280;10921;53.614;9.882;2022-11-24T04:10:36;100352.13;;;7.69;90.00
21520;BME280;10921;53.614;9.882;2022-11-24T04:13:08;100354.38;;;7.73;90.07
21520;BME280;10921;53.614;9.882;2022-11-24T04:15:37;100353.28;;;7.76;90.22
21520;BME280;10921;53.614;9.882;2022-11-24T04:18:06;100336.06;;;7.70;89.72
21520;BME280;10921;53.614;9.882;2022-11-24T04:20:32;100359.84;;;7.82;89.65
21520;BME280;10921;53.614;9.882;2022-11-24T04:22:59;100359.59;;;7.85;89.40
21520;BME280;10921;53.614;9.882;2022-11-24T04:25:26;100357.63;;;7.87;89.62
21520;BME280;10921;53.614;9.882;2022-11-24T04:27:54;100359.06;;;7.91;89.51
21520;BME280;10921;53.614;9.882;2022-11-24T04:30:22;100365.91;;;7.93;89.61
21520;BME280;10921;53.614;9.882;2022-11-24T04:32:50;100361.28;;;7.95;89.46
21520;BME280;10921;53.614;9.882;2022-11-24T04:35:17;100363.66;;;7.98;89.52
21520;BME280;10921;53.614;9.882;2022-11-24T04:37:44;100366.06;;;8.01;89.28
21520;BME280;10921;53.614;9.882;2022-11-24T04:40:11;100364.94;;;8.04;89.41
21520;BME280;10921;53.614;9.882;2022-11-24T04:42:38;100369.16;;;8.06;89.20
21520;BME280;10921;53.614;9.882;2022-11-24T04:45:05;100372.53;;;8.08;89.35
21520;BME280;10921;53.614;9.882;2022-11-24T04:47:32;100370.53;;;8.10;89.22
21520;BME280;10921;53.614;9.882;2022-11-24T04:49:59;100373.91;;;8.12;89.24
21520;BME280;10921;53.614;9.882;2022-11-24T04:52:26;100377.28;;;8.15;88.76
21520;BME280;10921;53.614;9.882;2022-11-24T04:54:52;100377.13;;;8.16;88.73
21520;BME280;10921;53.614;9.882;2022-11-24T04:57:22;100385.81;;;8.18;89.08
21520;BME280;10921;53.614;9.882;2022-11-24T04:59:50;100391.00;;;8.20;88.76
21520;BME280;10921;53.614;9.882;2022-11-24T05:02:17;100391.69;;;8.22;88.97
21520;BME280;10921;53.614;9.882;2022-11-24T05:04:44;100390.72;;;8.23;89.12
21520;BME280;10921;53.614;9.882;2022-11-24T05:07:15;100397.56;;;8.25;88.93
21520;BME280;10921;53.614;9.882;2022-11-24T05:09:45;100393.09;;;8.26;88.86
21520;BME280;10921;53.614;9.882;2022-11-24T05:12:31;100400.09;;;8.27;88.92
21520;BME280;10921;53.614;9.882;2022-11-24T05:14:58;100395.19;;;8.22;88.82
21520;BME280;10921;53.614;9.882;2022-11-24T05:17:29;100400.56;;;8.32;89.09
21520;BME280;10921;53.614;9.882;2022-11-24T05:19:56;100401.41;;;8.32;88.62
21520;BME280;10921;53.614;9.882;2022-11-24T05:22:23;100403.06;;;8.33;88.96
21520;BME280;10921;53.614;9.882;2022-11-24T05:24:50;100406.56;;;8.34;88.79
21520;BME280;10921;53.614;9.882;2022-11-24T05:27:16;100408.25;;;8.35;88.77
21520;BME280;10921;53.614;9.882;2022-11-24T05:29:43;100405.47;;;8.36;88.98
21520;BME280;10921;53.614;9.882;2022-11-24T05:32:09;100410.66;;;8.38;88.93
21520;BME280;10921;53.614;9.882;2022-11-24T05:34:36;100412.34;;;8.39;89.03
21520;BME280;10921;53.614;9.882;2022-11-24T05:37:02;100415.00;;;8.39;88.62
21520;BME280;10921;53.614;9.882;2022-11-24T05:39:35;100420.97;;;8.41;88.90
21520;BME280;10921;53.614;9.882;2022-11-24T05:42:04;100423.63;;;8.41;88.94
21520;BME280;10921;53.614;9.882;2022-11-24T05:44:51;100423.63;;;8.41;88.49
21520;BME280;10921;53.614;9.882;2022-11-24T05:47:18;100427.97;;;8.42;88.56
21520;BME280;10921;53.614;9.882;2022-11-24T05:49:45;100415.41;;;8.34;88.73
21520;BME280;10921;53.614;9.882;2022-11-24T05:52:12;100430.50;;;8.43;88.89
21520;BME280;10921;53.614;9.882;2022-11-24T05:54:39;100433.03;;;8.45;89.02
21520;BME280;10921;53.614;9.882;2022-11-24T05:57:06;100442.56;;;8.48;88.95
21520;BME280;10921;53.614;9.882;2022-11-24T05:59:33;100437.25;;;8.48;88.76
21520;BME280;10921;53.614;9.882;2022-11-24T06:02:00;100431.06;;;8.47;88.76
21520;BME280;10921;53.614;9.882;2022-11-24T06:04:27;100429.13;;;8.49;88.72
21520;BME280;10921;53.614;9.882;2022-11-24T06:06:53;100419.16;;;8.41;89.00
21520;BME280;10921;53.614;9.882;2022-11-24T06:09:20;100436.25;;;8.49;88.63
21520;BME280;10921;53.614;9.882;2022-11-24T06:11:47;100439.06;;;8.47;88.52
21520;BME280;10921;53.614;9.882;2022-11-24T06:14:13;100442.81;;;8.44;88.57
21520;BME280;10921;53.614;9.882;2022-11-24T06:16:40;100449.97;;;8.44;88.45
21520;BME280;10921;53.614;9.882;2022-11-24T06:19:08;100444.78;;;8.42;88.51
21520;BME280;10921;53.614;9.882;2022-11-24T06:21:35;100433.28;;;8.32;88.36
21520;BME280;10921;53.614;9.882;2022-11-24T06:24:01;100457.22;;;8.42;88.52
21520;BME280;10921;53.614;9.882;2022-11-24T06:26:28;100461.88;;;8.40;88.38
21520;BME280;10921;53.614;9.882;2022-11-24T06:28:54;100455.97;;;8.36;87.75
21520;BME280;10921;53.614;9.882;2022-11-24T06:31:21;100473.28;;;8.31;87.57
21520;BME280;10921;53.614;9.882;2022-11-24T06:33:48;100465.28;;;8.21;87.21
21520;BME280;10921;53.614;9.882;2022-11-24T06:36:15;100472.94;;;8.15;87.30
21520;BME280;10921;53.614;9.882;2022-11-24T06:38:41;100475.44;;;8.06;86.80
21520;BME280;10921;53.614;9.882;2022-11-24T06:41:14;100480.56;;;7.98;87.04
21520;BME280;10921;53.614;9.882;2022-11-24T06:43:44;100472.97;;;7.84;86.90
21520;BME280;10921;53.614;9.882;2022-11-24T06:46:11;100485.09;;;7.77;86.69
21520;BME280;10921;53.614;9.882;2022-11-24T06:48:38;100489.50;;;7.67;86.94
21520;BME280;10921;53.614;9.882;2022-11-24T06:51:07;100485.38;;;7.53;86.67
21520;BME280;10921;53.614;9.882;2022-11-24T06:53:35;100478.63;;;7.49;86.54
21520;BME280;10921;53.614;9.882;2022-11-24T06:56:05;100492.44;;;7.43;86.71
21520;BME280;10921;53.614;9.882;2022-11-24T06:58:41;100500.31;;;7.33;86.95
21520;BME280;10921;53.614;9.882;2022-11-24T07:01:07;100494.84;;;7.25;87.09
21520;BME280;10921;53.614;9.882;2022-11-24T07:03:34;100504.25;;;7.18;87.25
21520;BME280;10921;53.614;9.882;2022-11-24T07:06:00;100503.09;;;7.11;87.59
21520;BME280;10921;53.614;9.882;2022-11-24T07:08:27;100506.38;;;7.03;87.74
21520;BME280;10921;53.614;9.882;2022-11-24T07:10:53;100511.69;;;7.03;88.07
21520;BME280;10921;53.614;9.882;2022-11-24T07:13:20;100512.81;;;7.01;87.73
21520;BME280;10921;53.614;9.882;2022-11-24T07:15:47;100503.91;;;6.91;88.21
21520;BME280;10921;53.614;9.882;2022-11-24T07:18:13;100509.69;;;6.96;87.95
21520;BME280;10921;53.614;9.882;2022-11-24T07:20:40;100523.06;;;6.94;88.38
21520;BME280;10921;53.614;9.882;2022-11-24T07:23:06;100520.78;;;6.90;88.15
21520;BME280;10921;53.614;9.882;2022-11-24T07:25:33;100522.88;;;6.86;88.33
21520;BME280;10921;53.614;9.882;2022-11-24T07:27:59;100531.91;;;6.84;88.33
21520;BME280;10921;53.614;9.882;2022-11-24T07:30:26;100533.50;;;6.75;88.08
21520;BME280;10921;53.614;9.882;2022-11-24T07:33:02;100536.13;;;6.75;88.92
21520;BME280;10921;53.614;9.882;2022-11-24T07:35:29;100541.13;;;6.68;88.08
21520;BME280;10921;53.614;9.882;2022-11-24T07:37:57;100545.94;;;6.63;88.47
21520;BME280;10921;53.614;9.882;2022-11-24T07:40:25;100546.28;;;6.59;88.69
21520;BME280;10921;53.614;9.882;2022-11-24T07:42:52;100539.69;;;6.53;88.88
21520;BME280;10921;53.614;9.882;2022-11-24T07:45:19;100555.47;;;6.55;89.24
21520;BME280;10921;53.614;9.882;2022-11-24T07:47:46;100561.88;;;6.52;89.62
21520;BME280;10921;53.614;9.882;2022-11-24T07:50:12;100561.97;;;6.51;89.75
21520;BME280;10921;53.614;9.882;2022-11-24T07:52:39;100569.94;;;6.51;89.74
21520;BME280;10921;53.614;9.882;2022-11-24T07:55:06;100574.41;;;6.50;90.00
21520;BME280;10921;53.614;9.882;2022-11-24T07:57:33;100582.34;;;6.50;89.93
21520;BME280;10921;53.614;9.882;2022-11-24T08:00:00;100585.13;;;6.49;90.12
21520;BME280;10921;53.614;9.882;2022-11-24T08:02:27;100590.78;;;6.55;90.59
21520;BME280;10921;53.614;9.882;2022-11-24T08:04:53;100581.88;;;6.56;90.64
21520;BME280;10921;53.614;9.882;2022-11-24T08:07:20;100589.81;;;6.67;90.97
21520;BME280;10921;53.614;9.882;2022-11-24T08:09:47;100590.00;;;6.76;91.00
21520;BME280;10921;53.614;9.882;2022-11-24T08:12:15;100589.41;;;6.83;91.41
21520;BME280;10921;53.614;9.882;2022-11-24T08:14:49;100589.50;;;6.93;92.10
21520;BME280;10921;53.614;9.882;2022-11-24T08:17:16;100599.22;;;7.03;91.68
21520;BME280;10921;53.614;9.882;2022-11-24T08:19:43;100594.88;;;7.14;91.96
21520;BME280;10921;53.614;9.882;2022-11-24T08:22:10;100603.88;;;7.22;91.81
21520;BME280;10921;53.614;9.882;2022-11-24T08:24:37;100601.19;;;7.33;92.00
21520;BME280;10921;53.614;9.882;2022-11-24T08:27:03;100608.16;;;7.46;92.27
21520;BME280;10921;53.614;9.882;2022-11-24T08:29:31;100608.22;;;7.55;92.47
21520;BME280;10921;53.614;9.882;2022-11-24T08:31:58;100609.97;;;7.66;93.08
21520;BME280;10921;53.614;9.882;2022-11-24T08:34:24;100609.22;;;7.75;93.07
21520;BME280;10921;53.614;9.882;2022-11-24T08:36:53;100611.69;;;7.88;93.05
21520;BME280;10921;53.614;9.882;2022-11-24T08:39:20;100608.81;;;8.00;93.67
21520;BME280;10921;53.614;9.882;2022-11-24T08:41:46;100609.69;;;8.10;94.13
21520;BME280;10921;53.614;9.882;2022-11-24T08:44:13;100612.44;;;8.20;94.14
21520;BME280;10921;53.614;9.882;2022-11-24T08:46:43;100609.69;;;8.31;94.48
21520;BME280;10921;53.614;9.882;2022-11-24T08:49:10;100616.50;;;8.45;94.34
21520;BME280;10921;53.614;9.882;2022-11-24T08:51:38;100625.09;;;8.58;94.61
21520;BME280;10921;53.614;9.882;2022-11-24T08:54:05;100617.03;;;8.69;94.43
21520;BME280;10921;53.614;9.882;2022-11-24T08:56:32;100620.56;;;8.79;94.58
21520;BME280;10921;53.614;9.882;2022-11-24T08:58:59;100632.75;;;8.92;94.49
21520;BME280;10921;53.614;9.882;2022-11-24T09:01:27;100633.47;;;9.03;94.51
21520;BME280;10921;53.614;9.882;2022-11-24T09:03:54;100631.84;;;9.12;94.42
21520;BME280;10921;53.614;9.882;2022-11-24T09:06:23;100635.09;;;9.25;94.45
21520;BME280;10921;53.614;9.882;2022-11-24T09:08:52;100647.56;;;9.34;94.04
21520;BME280;10921;53.614;9.882;2022-11-24T09:11:19;100639.28;;;9.37;94.14
21520;BME280;10921;53.614;9.882;2022-11-24T09:13:45;100639.72;;;9.52;94.08
21520;BME280;10921;53.614;9.882;2022-11-24T09:16:17;100651.91;;;9.64;94.20
21520;BME280;10921;53.614;9.882;2022-11-24T09:18:45;100642.66;;;9.68;93.76
21520;BME280;10921;53.614;9.882;2022-11-24T09:21:14;100658.09;;;9.84;93.96
21520;BME280;10921;53.614;9.882;2022-11-24T09:23:42;100651.38;;;9.90;93.64
21520;BME280;10921;53.614;9.882;2022-11-24T09:26:18;100657.53;;;10.00;93.58
21520;BME280;10921;53.614;9.882;2022-11-24T09:28:45;100667.50;;;10.07;93.19
21520;BME280;10921;53.614;9.882;2022-11-24T09:31:14;100662.53;;;10.12;93.15
21520;BME280;10921;53.614;9.882;2022-11-24T09:33:41;100663.72;;;10.19;93.08
21520;BME280;10921;53.614;9.882;2022-11-24T09:36:08;100667.19;;;10.30;92.84
21520;BME280;10921;53.614;9.882;2022-11-24T09:38:35;100665.63;;;10.37;92.30
21520;BME280;10921;53.614;9.882;2022-11-24T09:44:18;100666.28;;;10.48;92.77
21520;BME280;10921;53.614;9.882;2022-11-24T09:47:10;100670.75;;;10.57;93.04
21520;BME280;10921;53.614;9.882;2022-11-24T09:49:55;100669.47;;;10.62;92.54
21520;BME280;10921;53.614;9.882;2022-11-24T09:55:32;100669.28;;;10.73;92.25
21520;BME280;10921;53.614;9.882;2022-11-24T10:00:53;100670.13;;;10.73;89.14
21520;BME280;10921;53.614;9.882;2022-11-24T10:03:48;100670.25;;;10.81;90.24
21520;BME280;10921;53.614;9.882;2022-11-24T10:11:45;100682.69;;;10.90;89.53
21520;BME280;10921;53.614;9.882;2022-11-24T10:14:28;100681.13;;;10.98;89.33
21520;BME280;10921;53.614;9.882;2022-11-24T10:17:08;100683.59;;;11.09;89.62
21520;BME280;10921;53.614;9.882;2022-11-24T10:19:46;100681.72;;;11.19;88.43
21520;BME280;10921;53.614;9.882;2022-11-24T10:22:28;100691.88;;;11.33;87.15
21520;BME280;10921;53.614;9.882;2022-11-24T10:28:16;100703.69;;;11.58;85.21
21520;BME280;10921;53.614;9.882;2022-11-24T10:30:43;100696.50;;;11.58;84.05
21520;BME280;10921;53.614;9.882;2022-11-24T10:33:20;100700.09;;;11.67;84.71
21520;BME280;10921;53.614;9.882;2022-11-24T10:36:15;100708.66;;;11.71;83.37
21520;BME280;10921;53.614;9.882;2022-11-24T10:38:58;100703.00;;;11.74;82.78
21520;BME280;10921;53.614;9.882;2022-11-24T10:44:14;100700.59;;;11.80;81.08
21520;BME280;10921;53.614;9.882;2022-11-24T10:46:41;100702.41;;;11.80;80.49
21520;BME280;10921;53.614;9.882;2022-11-24T10:49:16;100690.78;;;11.71;80.73
21520;BME280;10921;53.614;9.882;2022-11-24T10:51:57;100708.56;;;11.90;81.52
21520;BME280;10921;53.614;9.882;2022-11-24T10:54:26;100700.38;;;11.91;79.73
21520;BME280;10921;53.614;9.882;2022-11-24T10:56:53;100690.88;;;11.97;79.38
21520;BME280;10921;53.614;9.882;2022-11-24T11:01:51;100699.88;;;12.14;77.80
21520;BME280;10921;53.614;9.882;2022-11-24T11:04:31;100705.78;;;12.17;77.89
21520;BME280;10921;53.614;9.882;2022-11-24T11:09:39;100704.53;;;12.12;76.98
21520;BME280;10921;53.614;9.882;2022-11-24T11:12:29;100704.97;;;12.25;78.55
21520;BME280;10921;53.614;9.882;2022-11-24T11:15:23;100707.81;;;12.23;78.27
21520;BME280;10921;53.614;9.882;2022-11-24T11:17:50;100711.16;;;12.25;77.50
21520;BME280;10921;53.614;9.882;2022-11-24T11:20:32;100717.44;;;12.34;77.41
21520;BME280;10921;53.614;9.882;2022-11-24T11:23:11;100728.97;;;12.35;76.36
21520;BME280;10921;53.614;9.882;2022-11-24T11:25:40;100721.94;;;12.33;75.43
21520;BME280;10921;53.614;9.882;2022-11-24T11:28:26;100718.63;;;12.40;76.78
21520;BME280;10921;53.614;9.882;2022-11-24T11:31:04;100724.31;;;12.37;76.02
21520;BME280;10921;53.614;9.882;2022-11-24T11:34:16;100728.34;;;12.41;76.92
21520;BME280;10921;53.614;9.882;2022-11-24T11:36:54;100732.97;;;12.30;75.61
21520;BME280;10921;53.614;9.882;2022-11-24T11:39:36;100733.66;;;12.32;76.52
21520;BME280;10921;53.614;9.882;2022-11-24T11:45:46;100742.28;;;12.26;77.12
21520;BME280;10921;53.614;9.882;2022-11-24T11:48:31;100748.78;;;12.24;77.40
21520;BME280;10921;53.614;9.882;2022-11-24T11:51:37;100753.97;;;12.25;78.06
21520;BME280;10921;53.614;9.882;2022-11-24T11:54:47;100756.94;;;12.22;77.60
21520;BME280;10921;53.614;9.882;2022-11-24T11:57:10;100753.28;;;12.23;77.33
21520;BME280;10921;53.614;9.882;2022-11-24T12:10:02;100766.22;;;12.28;76.79
21520;BME280;10921;53.614;9.882;2022-11-24T12:12:52;100773.09;;;12.30;76.87
21520;BME280;10921;53.614;9.882;2022-11-24T12:18:24;100777.28;;;12.33;75.90
21520;BME280;10921;53.614;9.882;2022-11-24T12:21:18;100761.84;;;12.27;75.68
21520;BME280;10921;53.614;9.882;2022-11-24T12:24:33;100775.50;;;12.42;76.13
21520;BME280;10921;53.614;9.882;2022-11-24T12:27:23;100779.56;;;12.46;75.74
21520;BME280;10921;53.614;9.882;2022-11-24T12:30:04;100785.47;;;12.49;75.29
21520;BME280;10921;53.614;9.882;2022-11-24T12:33:01;100794.22;;;12.59;76.14
21520;BME280;10921;53.614;9.882;2022-11-24T12:35:44;100794.47;;;12.66;76.12
21520;BME280;10921;53.614;9.882;2022-11-24T12:38:44;100798.19;;;12.73;75.66
21520;BME280;10921;53.614;9.882;2022-11-24T12:54:48;100803.84;;;12.70;72.35
21520;BME280;10921;53.614;9.882;2022-11-24T12:57:33;100807.59;;;12.77;73.18
21520;BME280;10921;53.614;9.882;2022-11-24T13:00:07;100816.59;;;12.76;72.70
21520;BME280;10921;53.614;9.882;2022-11-24T13:05:32;100810.03;;;12.71;73.71
21520;BME280;10921;53.614;9.882;2022-11-24T13:08:03;100821.59;;;12.71;71.97
21520;BME280;10921;53.614;9.882;2022-11-24T13:10:33;100824.25;;;12.71;72.44
21520;BME280;10921;53.614;9.882;2022-11-24T13:13:22;100826.44;;;12.67;72.03
21520;BME280;10921;53.614;9.882;2022-11-24T13:19:06;100827.09;;;12.69;72.04
21520;BME280;10921;53.614;9.882;2022-11-24T13:26:49;100827.66;;;12.55;72.64
21520;BME280;10921;53.614;9.882;2022-11-24T13:29:35;100832.00;;;12.56;72.62
21520;BME280;10921;53.614;9.882;2022-11-24T13:40:02;100850.91;;;12.55;71.86
21520;BME280;10921;53.614;9.882;2022-11-24T13:53:41;100868.72;;;12.46;72.74
21520;BME280;10921;53.614;9.882;2022-11-24T13:58:40;100863.63;;;12.35;72.63
21520;BME280;10921;53.614;9.882;2022-11-24T14:01:25;100865.94;;;12.38;73.05
21520;BME280;10921;53.614;9.882;2022-11-24T14:07:04;100874.81;;;12.39;73.15
21520;BME280;10921;53.614;9.882;2022-11-24T14:09:45;100878.50;;;12.38;73.51
21520;BME280;10921;53.614;9.882;2022-11-24T14:12:20;100879.34;;;12.38;73.41
21520;BME280;10921;53.614;9.882;2022-11-24T14:14:49;100881.66;;;12.33;73.04
21520;BME280;10921;53.614;9.882;2022-11-24T14:17:21;100881.66;;;12.33;73.46
21520;BME280;10921;53.614;9.882;2022-11-24T14:19:51;100886.16;;;12.32;73.24
21520;BME280;10921;53.614;9.882;2022-11-24T14:24:53;100889.69;;;12.33;73.96
21520;BME280;10921;53.614;9.882;2022-11-24T14:27:26;100887.44;;;12.28;73.86
21520;BME280;10921;53.614;9.882;2022-11-24T14:30:00;100897.84;;;12.31;73.93
21520;BME280;10921;53.614;9.882;2022-11-24T14:32:27;100884.00;;;12.18;73.50
21520;BME280;10921;53.614;9.882;2022-11-24T14:34:54;100896.06;;;12.22;73.76
21520;BME280;10921;53.614;9.882;2022-11-24T14:37:22;100903.28;;;12.22;73.92
21520;BME280;10921;53.614;9.882;2022-11-24T14:39:48;100908.44;;;12.23;73.95
21520;BME280;10921;53.614;9.882;2022-11-24T14:42:23;100909.75;;;12.19;74.84
21520;BME280;10921;53.614;9.882;2022-11-24T14:44:58;100914.28;;;12.19;74.95
21520;BME280;10921;53.614;9.882;2022-11-24T14:47:33;100935.66;;;12.19;75.04
21520;BME280;10921;53.614;9.882;2022-11-24T14:50:13;100927.50;;;12.20;75.33
21520;BME280;10921;53.614;9.882;2022-11-24T14:52:54;100923.84;;;12.21;75.50